Time;durP1;ratioP1;P1;durP2;ratioP2;P2;SDS_P1;SDS_P2;PMS_P1;PMS_P2;Temp;Humidity;BMP_temperature;BMP_pressure;BME280_temperature;BME280_humidity;BME280_pressure;Samples;Min_cycle;Max_cycle;Signal;HPM_P1;HPM_P2
2020/12/07 00:01:47;;;;;;;54.55;24.42;;;3.80;99.90;;;;;;5010204;28;20026;-61
2020/12/07 00:04:13;;;;;;;45.33;21.10;;;3.80;99.90;;;;;;5011086;28;20034;-62
2020/12/07 00:06:39;;;;;;;44.03;21.63;;;3.90;99.90;;;;;;5009780;28;20030;-61
2020/12/07 00:09:05;;;;;;;43.63;22.23;;;3.90;99.90;;;;;;5009545;28;20107;-62
2020/12/07 00:11:31;;;;;;;50.33;22.10;;;3.90;99.90;;;;;;5009243;28;20036;-62
2020/12/07 00:13:57;;;;;;;45.00;20.30;;;3.80;99.90;;;;;;5008289;28;20499;-62
2020/12/07 00:16:22;;;;;;;35.90;18.48;;;3.80;99.90;;;;;;5010474;28;20117;-61
2020/12/07 00:18:48;;;;;;;37.70;19.25;;;3.80;99.90;;;;;;5010599;28;20087;-60
2020/12/07 00:21:13;;;;;;;33.65;19.10;;;3.80;99.90;;;;;;5010821;28;20496;-60
2020/12/07 00:23:39;;;;;;;32.78;18.77;;;3.80;99.90;;;;;;5007149;28;20427;-60
2020/12/07 00:26:10;;;;;;;36.95;18.60;;;3.80;99.90;;;;;;5002721;28;20069;-60
2020/12/07 00:28:36;;;;;;;34.45;18.85;;;3.80;99.90;;;;;;5011265;28;20033;-58
2020/12/07 00:31:04;;;;;;;33.13;18.65;;;3.80;99.90;;;;;;5010069;28;20067;-57
2020/12/07 00:33:30;;;;;;;37.80;19.48;;;3.80;99.90;;;;;;5007311;28;20399;-59
2020/12/07 00:35:56;;;;;;;37.70;20.10;;;3.70;99.90;;;;;;5011741;28;20142;-59
2020/12/07 00:38:21;;;;;;;34.38;19.60;;;3.70;99.90;;;;;;5011254;28;20105;-58
2020/12/07 00:40:47;;;;;;;35.83;19.35;;;3.70;99.90;;;;;;5008425;28;20626;-60
2020/12/07 00:43:12;;;;;;;31.50;16.88;;;3.70;99.90;;;;;;5011603;28;20092;-60
2020/12/07 00:45:38;;;;;;;38.83;19.13;;;3.70;99.90;;;;;;5007912;28;20096;-59
2020/12/07 00:48:03;;;;;;;38.85;19.33;;;3.70;99.90;;;;;;5010684;28;20028;-58
2020/12/07 00:50:29;;;;;;;32.15;19.20;;;3.70;99.90;;;;;;5005662;28;20096;-58
2020/12/07 00:52:55;;;;;;;36.83;18.38;;;3.70;99.90;;;;;;5010803;28;20416;-59
2020/12/07 00:55:20;;;;;;;39.50;20.73;;;3.70;99.90;;;;;;5011326;28;20022;-59
2020/12/07 00:57:46;;;;;;;35.60;18.33;;;3.70;99.90;;;;;;5010556;28;20037;-57
2020/12/07 01:00:11;;;;;;;33.25;18.73;;;3.70;99.90;;;;;;5011439;28;20098;-60
2020/12/07 01:02:37;;;;;;;40.70;19.58;;;3.70;99.90;;;;;;5011064;28;20450;-60
2020/12/07 01:05:04;;;;;;;44.85;21.63;;;3.70;99.90;;;;;;5010088;28;20018;-59
2020/12/07 01:07:29;;;;;;;39.90;20.83;;;3.70;99.90;;;;;;5007907;28;20033;-60
2020/12/07 01:09:55;;;;;;;33.83;20.27;;;3.70;99.90;;;;;;5007135;28;20083;-57
2020/12/07 01:12:20;;;;;;;37.50;21.42;;;3.70;99.90;;;;;;5010709;28;20399;-60
2020/12/07 01:14:49;;;;;;;38.30;18.83;;;3.80;99.90;;;;;;5007854;28;20450;-59
2020/12/07 01:17:14;;;;;;;33.85;19.42;;;3.80;99.90;;;;;;5006299;28;20035;-60
2020/12/07 01:19:40;;;;;;;35.65;20.92;;;3.80;99.90;;;;;;5015822;28;20041;-60
2020/12/07 01:22:06;;;;;;;39.15;21.58;;;3.70;99.90;;;;;;5014540;28;20026;-59
2020/12/07 01:24:31;;;;;;;39.38;19.90;;;3.70;99.90;;;;;;5006059;28;20023;-61
2020/12/07 01:26:57;;;;;;;36.80;20.00;;;3.70;99.90;;;;;;5016327;28;20460;-61
2020/12/07 01:29:22;;;;;;;38.72;19.52;;;3.70;99.90;;;;;;5016138;28;20395;-60
2020/12/07 01:31:48;;;;;;;33.45;19.15;;;3.70;99.90;;;;;;5017449;28;20503;-59
2020/12/07 01:34:13;;;;;;;40.53;19.92;;;3.70;99.90;;;;;;5015613;28;20080;-61
2020/12/07 01:36:39;;;;;;;39.20;19.05;;;3.60;99.90;;;;;;5017357;28;20518;-59
2020/12/07 01:39:05;;;;;;;34.03;19.55;;;3.70;99.90;;;;;;5014008;28;20189;-60
2020/12/07 01:41:30;;;;;;;33.55;17.08;;;3.60;99.90;;;;;;5016992;28;20041;-60
2020/12/07 01:43:56;;;;;;;37.15;19.63;;;3.60;99.90;;;;;;5015599;28;20029;-60
2020/12/07 01:46:23;;;;;;;27.08;17.30;;;3.60;99.90;;;;;;5014723;28;20026;-60
2020/12/07 01:48:50;;;;;;;34.92;18.65;;;3.60;99.90;;;;;;5015198;28;20037;-59
2020/12/07 01:51:16;;;;;;;36.13;19.63;;;3.60;99.90;;;;;;5010445;28;20021;-59
2020/12/07 01:53:42;;;;;;;36.20;19.15;;;3.60;99.90;;;;;;4998042;28;20030;-59
2020/12/07 01:56:12;;;;;;;34.22;18.75;;;3.60;99.90;;;;;;5009992;28;20022;-59
2020/12/07 01:58:39;;;;;;;31.30;18.27;;;3.60;99.90;;;;;;5016444;28;20518;-59
2020/12/07 02:01:04;;;;;;;35.67;20.45;;;3.60;99.90;;;;;;5014097;28;20034;-61
2020/12/07 02:03:30;;;;;;;34.38;19.20;;;3.60;99.90;;;;;;5015365;28;20022;-59
2020/12/07 02:05:56;;;;;;;32.22;19.00;;;3.60;99.90;;;;;;5015158;28;20029;-61
2020/12/07 02:08:22;;;;;;;35.25;20.23;;;3.60;99.90;;;;;;5013369;28;20029;-61
2020/12/07 02:10:47;;;;;;;32.25;18.55;;;3.70;99.90;;;;;;5015373;28;20407;-61
2020/12/07 02:13:14;;;;;;;33.90;19.00;;;3.70;99.90;;;;;;5011193;28;20026;-60
2020/12/07 02:15:40;;;;;;;34.58;19.33;;;3.70;99.90;;;;;;5016896;28;20014;-61
2020/12/07 02:18:07;;;;;;;28.40;18.70;;;3.70;99.90;;;;;;5008522;28;20702;-61
2020/12/07 02:20:33;;;;;;;28.50;18.25;;;3.60;99.90;;;;;;5015879;28;20026;-60
2020/12/07 02:22:59;;;;;;;27.23;17.88;;;3.60;99.90;;;;;;5014261;28;20052;-59
2020/12/07 02:25:24;;;;;;;31.85;19.90;;;3.60;99.90;;;;;;5007173;28;20488;-59
2020/12/07 02:27:51;;;;;;;31.05;20.08;;;3.60;99.90;;;;;;5016703;28;20037;-60
2020/12/07 02:30:18;;;;;;;30.15;19.23;;;3.60;99.90;;;;;;5013694;28;20499;-60
2020/12/07 02:32:45;;;;;;;34.50;20.98;;;3.60;99.90;;;;;;5011693;28;20061;-60
2020/12/07 02:35:11;;;;;;;37.97;21.90;;;3.60;99.90;;;;;;5012192;28;20430;-60
2020/12/07 02:37:37;;;;;;;32.35;21.05;;;3.60;99.90;;;;;;5009433;28;20049;-60
2020/12/07 02:40:04;;;;;;;33.22;22.55;;;3.70;99.90;;;;;;5001180;28;20024;-61
2020/12/07 02:42:32;;;;;;;37.45;22.83;;;3.60;99.90;;;;;;5009773;28;20018;-61
2020/12/07 02:44:59;;;;;;;40.15;25.13;;;3.60;99.90;;;;;;5010185;28;20018;-61
2020/12/07 02:47:26;;;;;;;37.17;22.92;;;3.60;99.90;;;;;;5011960;28;20057;-60
2020/12/07 02:49:54;;;;;;;40.25;24.63;;;3.60;99.90;;;;;;5006899;28;20088;-61
2020/12/07 02:52:23;;;;;;;40.83;25.83;;;3.60;99.90;;;;;;5013386;28;20112;-60
2020/12/07 02:54:53;;;;;;;39.35;23.80;;;3.60;99.90;;;;;;5012743;28;20112;-60
2020/12/07 02:57:19;;;;;;;39.47;25.02;;;3.60;99.90;;;;;;5014602;28;20038;-60
2020/12/07 02:59:45;;;;;;;39.97;24.35;;;3.60;99.90;;;;;;5009509;28;20030;-61
2020/12/07 03:02:10;;;;;;;42.83;25.10;;;3.60;99.90;;;;;;5007902;28;20057;-61
2020/12/07 03:04:36;;;;;;;42.80;25.48;;;3.60;99.90;;;;;;5012365;28;20045;-60
2020/12/07 03:07:01;;;;;;;38.08;23.73;;;3.60;99.90;;;;;;5010120;28;20076;-59
2020/12/07 03:09:27;;;;;;;35.58;24.48;;;3.60;99.90;;;;;;5001174;28;20041;-59
2020/12/07 03:11:52;;;;;;;40.35;23.70;;;3.60;99.90;;;;;;5010567;28;20125;-60
2020/12/07 03:14:18;;;;;;;37.75;24.25;;;3.60;99.90;;;;;;5007786;28;20034;-60
2020/12/07 03:16:44;;;;;;;43.47;25.45;;;3.70;99.90;;;;;;5012592;28;20419;-60
2020/12/07 03:19:11;;;;;;;38.78;24.42;;;3.60;99.90;;;;;;5012660;28;20388;-58
2020/12/07 03:21:37;;;;;;;39.08;24.55;;;3.60;99.90;;;;;;5011739;28;20104;-61
2020/12/07 03:24:05;;;;;;;37.08;22.90;;;3.60;99.90;;;;;;5008264;28;20069;-60
2020/12/07 03:26:32;;;;;;;40.10;23.95;;;3.60;99.90;;;;;;5004651;28;20387;-59
2020/12/07 03:28:58;;;;;;;36.88;21.65;;;3.60;99.90;;;;;;5012018;28;20092;-60
2020/12/07 03:31:23;;;;;;;39.78;23.45;;;3.60;99.90;;;;;;5012453;28;20030;-60
2020/12/07 03:33:49;;;;;;;41.83;22.90;;;3.60;99.90;;;;;;5008126;28;20398;-60
2020/12/07 03:36:14;;;;;;;34.22;21.55;;;3.60;99.90;;;;;;5004906;28;20030;-61
2020/12/07 03:38:40;;;;;;;39.72;22.52;;;3.60;99.90;;;;;;5008850;28;20041;-61
2020/12/07 03:41:05;;;;;;;39.40;24.33;;;3.60;99.90;;;;;;5003268;28;20088;-62
2020/12/07 03:43:31;;;;;;;40.75;24.55;;;3.50;99.90;;;;;;5007886;28;20101;-61
2020/12/07 03:45:56;;;;;;;40.65;22.48;;;3.50;99.90;;;;;;5012583;28;20101;-60
2020/12/07 03:48:22;;;;;;;43.13;24.17;;;3.50;99.90;;;;;;5006911;28;20062;-61
2020/12/07 03:50:47;;;;;;;46.60;25.60;;;3.50;99.90;;;;;;5010058;28;20176;-60
2020/12/07 03:53:13;;;;;;;46.35;26.85;;;3.50;99.90;;;;;;5044560;22;20083;-59
2020/12/07 03:55:38;;;;;;;45.28;24.75;;;3.50;99.90;;;;;;5050293;28;20040;-59
2020/12/07 03:58:04;;;;;;;45.35;25.75;;;3.50;99.90;;;;;;5048572;28;20048;-59
2020/12/07 04:00:29;;;;;;;44.90;26.45;;;3.50;99.90;;;;;;5050358;28;20600;-58
2020/12/07 04:02:55;;;;;;;48.15;24.55;;;3.40;99.90;;;;;;5047715;28;20021;-58
2020/12/07 04:05:40;;;;;;;44.28;24.33;;;3.50;99.90;;;;;;5023948;28;20507;-58
2020/12/07 04:08:06;;;;;;;37.90;21.17;;;3.50;99.90;;;;;;5027040;28;20021;-59
2020/12/07 04:10:31;;;;;;;41.00;22.30;;;3.40;99.90;;;;;;5036728;28;20452;-59
2020/12/07 04:12:57;;;;;;;39.33;21.60;;;3.40;99.90;;;;;;5037522;28;20033;-58
2020/12/07 04:15:22;;;;;;;39.40;22.23;;;3.40;99.90;;;;;;5040124;28;20033;-60
2020/12/07 04:17:48;;;;;;;42.42;23.02;;;3.40;99.90;;;;;;5035411;28;20491;-55
2020/12/07 04:20:13;;;;;;;38.33;21.58;;;3.40;99.90;;;;;;5041841;28;20036;-57
2020/12/07 04:22:39;;;;;;;37.67;20.35;;;3.40;99.90;;;;;;5028939;28;20021;-57
2020/12/07 04:25:04;;;;;;;39.95;21.95;;;3.40;99.90;;;;;;5042041;28;20025;-59
2020/12/07 04:27:30;;;;;;;38.13;21.50;;;3.40;99.90;;;;;;5040570;28;20155;-58
2020/12/07 04:29:55;;;;;;;44.53;23.15;;;3.40;99.90;;;;;;5040955;28;20025;-58
2020/12/07 04:32:21;;;;;;;44.28;23.83;;;3.40;99.90;;;;;;5038444;28;20029;-59
2020/12/07 04:34:47;;;;;;;41.75;23.17;;;3.40;99.90;;;;;;5041799;28;20403;-58
2020/12/07 04:37:12;;;;;;;48.40;25.45;;;3.40;99.90;;;;;;5031359;28;20036;-58
2020/12/07 04:39:38;;;;;;;48.90;26.05;;;3.40;99.90;;;;;;5033108;28;20039;-58
2020/12/07 04:42:04;;;;;;;47.78;25.27;;;3.40;99.90;;;;;;5033567;28;20104;-55
2020/12/07 04:44:31;;;;;;;46.38;24.33;;;3.40;99.90;;;;;;5046244;28;20037;-56
2020/12/07 04:46:58;;;;;;;53.28;26.92;;;3.40;99.90;;;;;;5041340;28;20025;-56
2020/12/07 04:49:28;;;;;;;57.22;28.30;;;3.40;99.90;;;;;;5039733;28;20029;-57
2020/12/07 04:51:53;;;;;;;56.90;27.98;;;3.50;99.90;;;;;;5036185;28;20032;-58
2020/12/07 04:54:21;;;;;;;55.47;27.60;;;3.40;99.90;;;;;;5036116;28;20037;-54
2020/12/07 04:56:47;;;;;;;53.72;26.90;;;3.50;99.90;;;;;;5041613;28;20026;-57
2020/12/07 04:59:14;;;;;;;57.00;28.50;;;3.50;99.90;;;;;;5039928;28;20032;-57
2020/12/07 05:01:40;;;;;;;52.92;26.30;;;3.50;99.90;;;;;;5039636;28;20384;-59
2020/12/07 05:04:05;;;;;;;50.40;27.27;;;3.50;99.90;;;;;;5033128;28;20086;-58
2020/12/07 05:06:31;;;;;;;52.90;28.33;;;3.50;99.90;;;;;;5035617;28;20471;-59
2020/12/07 05:08:58;;;;;;;53.47;27.30;;;3.40;99.90;;;;;;5023093;28;20392;-58
2020/12/07 05:11:26;;;;;;;55.13;27.50;;;3.40;99.90;;;;;;5034413;28;20037;-60
2020/12/07 05:14:00;;;;;;;49.05;27.80;;;3.50;99.90;;;;;;5047138;28;20112;-58
2020/12/07 05:16:28;;;;;;;62.63;29.40;;;3.40;99.90;;;;;;5038674;28;20029;-58
2020/12/07 05:18:53;;;;;;;59.42;31.27;;;3.40;99.90;;;;;;5039382;28;20414;-58
2020/12/07 05:21:19;;;;;;;60.80;30.00;;;3.50;99.90;;;;;;5039080;28;20037;-58
2020/12/07 05:23:50;;;;;;;54.65;30.08;;;3.50;99.90;;;;;;5035464;28;20710;-58
2020/12/07 05:26:18;;;;;;;55.17;29.33;;;3.50;99.90;;;;;;5045037;28;20021;-59
2020/12/07 05:28:48;;;;;;;61.75;32.55;;;3.50;99.90;;;;;;5021910;28;20022;-59
2020/12/07 05:31:19;;;;;;;68.88;37.10;;;3.50;99.90;;;;;;5042793;28;20040;-59
2020/12/07 05:33:49;;;;;;;81.88;42.47;;;3.50;99.90;;;;;;5038159;28;20019;-59
2020/12/07 05:36:15;;;;;;;63.00;32.05;;;3.50;99.90;;;;;;5040964;28;20032;-58
2020/12/07 05:38:43;;;;;;;63.63;33.58;;;3.50;99.90;;;;;;5026450;28;20026;-58
2020/12/07 05:41:10;;;;;;;63.40;33.22;;;3.60;99.90;;;;;;5018150;28;20021;-58
2020/12/07 05:43:37;;;;;;;56.25;29.23;;;3.60;99.90;;;;;;5023513;28;20022;-59
2020/12/07 05:46:04;;;;;;;64.55;31.83;;;3.50;99.90;;;;;;5029966;28;20025;-57
2020/12/07 05:48:32;;;;;;;57.65;30.98;;;3.50;99.90;;;;;;5030196;28;20030;-58
2020/12/07 05:51:05;;;;;;;63.55;32.58;;;3.60;99.90;;;;;;5026869;28;20030;-57
2020/12/07 05:53:35;;;;;;;68.47;36.93;;;3.60;99.90;;;;;;5035290;28;20063;-59
2020/12/07 05:56:05;;;;;;;60.25;30.25;;;3.50;99.90;;;;;;5029314;28;20537;-58
2020/12/07 05:58:56;;;;;;;57.42;31.38;;;3.60;99.90;;;;;;5027886;28;20033;-59
2020/12/07 06:01:25;;;;;;;359.92;117.45;;;3.60;99.90;;;;;;5032811;28;20042;-60
2020/12/07 06:03:52;;;;;;;174.90;73.45;;;3.60;99.90;;;;;;5043657;28;20101;-57
2020/12/07 06:06:32;;;;;;;234.57;108.57;;;3.60;99.90;;;;;;5036487;28;20447;-59
2020/12/07 06:09:03;;;;;;;195.95;101.97;;;3.70;99.90;;;;;;5032707;28;20057;-58
2020/12/07 06:11:34;;;;;;;93.70;51.80;;;3.60;99.90;;;;;;5039213;28;20112;-57
2020/12/07 06:14:03;;;;;;;139.27;87.72;;;3.60;99.90;;;;;;5030990;28;20120;-59
2020/12/07 06:16:35;;;;;;;80.15;47.53;;;3.70;99.90;;;;;;5043706;28;20026;-61
2020/12/07 06:19:01;;;;;;;57.08;34.92;;;3.70;99.90;;;;;;5037831;28;20028;-59
2020/12/07 06:21:26;;;;;;;48.65;28.75;;;3.70;99.90;;;;;;5045755;28;20032;-58
2020/12/07 06:23:57;;;;;;;51.28;27.92;;;3.60;99.90;;;;;;5032609;28;20025;-58
2020/12/07 06:26:22;;;;;;;48.30;27.95;;;3.60;99.90;;;;;;5036399;28;20079;-57
2020/12/07 06:28:49;;;;;;;52.90;27.63;;;3.60;99.90;;;;;;5037513;28;20033;-59
2020/12/07 06:31:21;;;;;;;55.15;29.13;;;3.60;99.90;;;;;;5045640;28;20021;-59
2020/12/07 06:33:52;;;;;;;60.83;30.40;;;3.60;99.90;;;;;;5028535;28;20112;-59
2020/12/07 06:36:27;;;;;;;95.65;47.13;;;3.60;99.90;;;;;;5042515;28;20496;-60
2020/12/07 06:38:59;;;;;;;62.95;32.05;;;3.70;99.90;;;;;;5031464;28;20139;-59
2020/12/07 06:41:47;;;;;;;52.72;27.95;;;3.60;99.90;;;;;;5041369;28;20029;-59
2020/12/07 06:44:17;;;;;;;63.95;36.00;;;3.60;99.90;;;;;;5041748;28;20474;-59
2020/12/07 06:47:05;;;;;;;54.28;30.90;;;3.70;99.90;;;;;;5030031;28;20117;-59
2020/12/07 06:49:39;;;;;;;51.53;27.95;;;3.70;99.90;;;;;;5046118;28;20029;-59
2020/12/07 06:52:20;;;;;;;56.47;29.73;;;3.70;99.90;;;;;;5022376;28;20056;-59
2020/12/07 06:55:09;;;;;;;82.55;40.45;;;3.70;99.90;;;;;;5046435;28;20052;-59
2020/12/07 06:57:47;;;;;;;85.28;43.88;;;3.70;99.90;;;;;;5027218;28;20026;-58
2020/12/07 07:00:14;;;;;;;96.22;48.05;;;3.70;99.90;;;;;;5034982;28;20514;-58
2020/12/07 07:02:45;;;;;;;80.25;38.67;;;3.80;99.90;;;;;;5032435;28;20030;-59
2020/12/07 07:05:13;;;;;;;77.63;40.35;;;3.80;99.90;;;;;;5039157;28;20104;-56
2020/12/07 07:07:39;;;;;;;62.20;33.13;;;3.80;99.90;;;;;;5041940;28;20017;-58
2020/12/07 07:10:07;;;;;;;83.30;42.67;;;3.70;99.90;;;;;;5019491;28;20053;-59
2020/12/07 07:12:34;;;;;;;50.15;27.38;;;3.80;99.90;;;;;;5031920;28;20867;-60
2020/12/07 07:14:59;;;;;;;67.65;31.65;;;3.80;99.90;;;;;;5038679;28;20458;-58
2020/12/07 07:17:31;;;;;;;60.90;30.88;;;3.80;99.90;;;;;;5036454;28;20024;-57
2020/12/07 07:19:58;;;;;;;61.95;28.42;;;3.80;99.90;;;;;;5027182;28;20025;-57
2020/12/07 07:22:24;;;;;;;64.20;34.05;;;3.70;99.90;;;;;;5037790;28;20025;-59
2020/12/07 07:28:10;;;;;;;53.65;28.77;;;3.80;99.90;;;;;;5038030;28;20537;-56
2020/12/07 07:30:27;;;;;;;59.25;29.38;;;3.70;99.90;;;;;;5033707;28;20525;-59
2020/12/07 07:32:54;;;;;;;50.25;27.50;;;3.80;99.90;;;;;;5046821;28;20060;-57
2020/12/07 07:35:25;;;;;;;44.90;24.92;;;3.80;99.90;;;;;;5024810;28;20096;-59
2020/12/07 07:37:51;;;;;;;52.45;26.77;;;3.80;99.90;;;;;;4947638;28;20569;-60
2020/12/07 07:40:24;;;;;;;52.38;26.90;;;3.80;99.90;;;;;;5020880;28;20032;-59
2020/12/07 07:42:52;;;;;;;57.40;26.10;;;3.80;99.90;;;;;;5018551;28;20052;-59
2020/12/07 07:45:23;;;;;;;40.67;22.52;;;3.80;99.90;;;;;;5025863;28;20030;-60
2020/12/07 07:47:56;;;;;;;39.78;22.30;;;3.80;99.90;;;;;;5020939;28;20059;-59
2020/12/07 08:02:24;;;;;;;38.13;21.70;;;3.80;99.90;;;;;;5011954;28;20041;-59
2020/12/07 08:15:56;;;;;;;36.38;17.90;;;3.90;99.90;;;;;;5015924;28;20072;-59
2020/12/07 08:18:35;;;;;;;32.30;17.98;;;3.90;99.90;;;;;;5033706;28;20030;-60
2020/12/07 08:21:05;;;;;;;33.50;18.17;;;3.90;99.90;;;;;;5031102;28;20498;-60
2020/12/07 08:23:34;;;;;;;53.33;29.00;;;3.90;99.90;;;;;;5033263;28;20609;-59
2020/12/07 08:26:01;;;;;;;46.13;23.17;;;3.90;99.90;;;;;;5030464;28;20037;-59
2020/12/07 08:28:41;;;;;;;31.17;19.10;;;3.90;99.90;;;;;;5020200;28;20030;-60
2020/12/07 08:31:16;;;;;;;36.15;19.88;;;3.90;99.90;;;;;;5013105;28;20377;-60
2020/12/07 08:34:07;;;;;;;28.80;18.45;;;3.90;99.90;;;;;;5016845;28;20049;-58
2020/12/07 08:36:34;;;;;;;30.88;17.55;;;3.90;99.90;;;;;;5002689;28;20399;-58
2020/12/07 08:39:00;;;;;;;26.42;15.40;;;3.90;99.90;;;;;;5021355;28;20036;-59
2020/12/07 08:41:28;;;;;;;38.55;20.10;;;4.00;99.90;;;;;;5026094;28;20037;-58
2020/12/07 08:43:56;;;;;;;32.08;17.00;;;4.00;99.90;;;;;;5025761;28;20068;-58
2020/12/07 08:46:24;;;;;;;26.52;15.43;;;4.00;99.90;;;;;;5033175;28;20062;-58
2020/12/07 08:48:50;;;;;;;27.15;15.38;;;4.10;99.90;;;;;;5014426;28;20080;-58
2020/12/07 08:51:20;;;;;;;23.77;14.93;;;4.00;99.90;;;;;;5031381;28;20009;-59
2020/12/07 08:53:45;;;;;;;26.90;14.13;;;4.10;99.90;;;;;;5021184;28;20034;-59
2020/12/07 08:56:11;;;;;;;32.80;17.90;;;4.10;99.90;;;;;;5034506;28;20032;-58
2020/12/07 08:58:37;;;;;;;28.95;16.88;;;4.10;99.90;;;;;;5025875;28;20174;-60
2020/12/07 09:01:04;;;;;;;33.83;17.58;;;4.20;99.90;;;;;;5023635;28;20029;-59
2020/12/07 09:03:31;;;;;;;24.52;14.10;;;4.10;99.90;;;;;;5033010;28;20033;-59
2020/12/07 09:05:56;;;;;;;18.10;11.68;;;4.10;99.90;;;;;;5029146;28;20100;-59
2020/12/07 09:08:22;;;;;;;21.02;12.45;;;4.20;99.90;;;;;;5023637;28;20113;-59
2020/12/07 09:10:47;;;;;;;21.00;12.70;;;4.10;99.90;;;;;;5026289;28;20269;-58
2020/12/07 09:13:13;;;;;;;21.23;12.77;;;4.20;99.90;;;;;;5028175;28;20064;-57
2020/12/07 09:15:39;;;;;;;18.95;11.45;;;4.20;99.90;;;;;;5029315;28;20029;-57
2020/12/07 09:18:04;;;;;;;54.25;29.13;;;4.20;99.90;;;;;;5034031;28;20033;-58
2020/12/07 09:20:30;;;;;;;29.13;16.45;;;4.20;99.90;;;;;;5032377;28;20135;-61
2020/12/07 09:22:55;;;;;;;39.78;20.52;;;4.20;99.90;;;;;;5025156;28;20029;-59
2020/12/07 09:25:21;;;;;;;16.88;10.80;;;4.20;99.90;;;;;;5028906;28;20025;-59
2020/12/07 09:27:46;;;;;;;16.23;10.23;;;4.20;99.90;;;;;;5028816;28;20487;-58
2020/12/07 09:30:12;;;;;;;17.30;10.27;;;4.30;99.90;;;;;;5017814;28;20076;-59
2020/12/07 09:32:38;;;;;;;16.10;9.70;;;4.30;99.90;;;;;;5040157;28;20029;-59
2020/12/07 09:35:06;;;;;;;17.23;8.98;;;4.20;99.90;;;;;;5029388;28;20082;-59
2020/12/07 09:37:31;;;;;;;18.83;9.55;;;4.30;99.90;;;;;;5015065;28;20053;-58
2020/12/07 09:39:57;;;;;;;18.98;10.65;;;4.20;99.90;;;;;;5020861;28;20026;-59
2020/12/07 09:42:22;;;;;;;18.77;9.15;;;4.30;99.90;;;;;;5009281;28;20538;-59
2020/12/07 09:44:48;;;;;;;14.18;8.10;;;4.30;99.90;;;;;;5038858;28;20044;-58
2020/12/07 09:47:14;;;;;;;15.18;7.32;;;4.30;99.90;;;;;;5033692;28;20034;-59
2020/12/07 09:49:39;;;;;;;14.82;9.15;;;4.30;99.90;;;;;;5027797;28;20103;-60
2020/12/07 09:52:05;;;;;;;16.52;9.32;;;4.30;99.90;;;;;;5028211;28;20151;-59
2020/12/07 09:54:36;;;;;;;11.07;7.05;;;4.30;99.90;;;;;;5025777;28;20041;-59
2020/12/07 09:57:03;;;;;;;10.95;6.70;;;4.30;99.90;;;;;;5031442;28;20036;-60
2020/12/07 09:59:28;;;;;;;12.90;6.70;;;4.40;99.90;;;;;;5033413;28;20175;-59
2020/12/07 10:01:54;;;;;;;10.90;6.57;;;4.40;99.90;;;;;;5037379;28;20496;-59
2020/12/07 10:04:19;;;;;;;12.48;8.05;;;4.40;99.90;;;;;;5035384;28;20025;-59
2020/12/07 10:06:45;;;;;;;18.63;9.68;;;4.40;99.90;;;;;;5025805;28;20025;-60
2020/12/07 10:09:11;;;;;;;10.07;6.88;;;4.50;99.90;;;;;;5032836;28;20040;-59
2020/12/07 10:11:36;;;;;;;10.88;7.35;;;4.50;99.90;;;;;;5033839;28;20026;-59
2020/12/07 10:14:02;;;;;;;8.95;6.22;;;4.50;99.90;;;;;;5028899;28;20033;-60
2020/12/07 10:16:27;;;;;;;10.48;6.75;;;4.60;99.90;;;;;;5051451;28;20087;-59
2020/12/07 10:18:53;;;;;;;11.23;6.82;;;4.70;99.90;;;;;;5038497;28;20034;-60
2020/12/07 10:21:24;;;;;;;10.40;6.47;;;4.70;99.90;;;;;;5042244;28;20025;-59
2020/12/07 10:23:49;;;;;;;9.82;6.97;;;4.80;99.90;;;;;;5025704;28;20049;-57
2020/12/07 10:26:15;;;;;;;13.02;6.57;;;4.90;99.90;;;;;;5043386;28;20654;-59
2020/12/07 10:28:41;;;;;;;10.70;7.10;;;4.90;99.90;;;;;;5027399;28;20383;-57
2020/12/07 10:31:06;;;;;;;10.35;6.85;;;5.00;99.90;;;;;;5038959;28;20549;-60
2020/12/07 10:33:32;;;;;;;10.35;7.00;;;5.00;99.90;;;;;;5032441;28;20510;-58
2020/12/07 10:35:57;;;;;;;8.57;5.65;;;5.10;99.90;;;;;;5038400;28;20049;-57
2020/12/07 10:38:23;;;;;;;7.28;5.82;;;5.00;99.90;;;;;;5011057;28;20121;-59
2020/12/07 10:40:48;;;;;;;11.05;6.70;;;5.00;99.90;;;;;;5036111;28;20099;-60
2020/12/07 10:43:14;;;;;;;30.73;16.50;;;5.00;99.90;;;;;;5022613;28;20028;-58
2020/12/07 10:45:39;;;;;;;31.92;17.83;;;5.10;99.90;;;;;;5036191;28;20121;-59
2020/12/07 10:48:05;;;;;;;16.67;8.63;;;5.10;99.90;;;;;;5034831;28;20041;-58
2020/12/07 10:50:30;;;;;;;11.90;6.85;;;5.20;99.90;;;;;;5032104;28;20521;-59
2020/12/07 10:52:56;;;;;;;14.80;6.07;;;5.20;99.90;;;;;;5019810;28;20530;-59
2020/12/07 10:55:22;;;;;;;31.85;14.95;;;5.30;99.90;;;;;;5009780;28;20515;-59
2020/12/07 10:57:47;;;;;;;19.33;11.57;;;5.40;99.90;;;;;;5011020;28;20045;-58
2020/12/07 11:00:13;;;;;;;13.93;10.00;;;5.40;99.90;;;;;;5013284;28;20050;-58
2020/12/07 11:02:38;;;;;;;13.18;6.78;;;5.50;99.90;;;;;;5014835;28;20052;-58
2020/12/07 11:05:04;;;;;;;10.25;6.82;;;5.60;99.90;;;;;;5013918;28;20047;-59
2020/12/07 11:07:31;;;;;;;8.00;5.43;;;5.60;99.90;;;;;;5014571;28;20030;-59
2020/12/07 11:09:56;;;;;;;8.07;6.03;;;5.70;99.90;;;;;;5022906;28;20084;-59
2020/12/07 11:12:23;;;;;;;8.43;6.15;;;5.70;99.90;;;;;;5028707;28;20030;-59
2020/12/07 11:14:49;;;;;;;11.77;8.25;;;5.60;99.90;;;;;;5031835;28;20457;-59
2020/12/07 11:17:15;;;;;;;9.50;6.50;;;5.60;99.90;;;;;;5034372;28;20025;-58
2020/12/07 11:19:43;;;;;;;22.55;14.48;;;5.60;99.90;;;;;;5034323;28;20047;-57
2020/12/07 11:22:13;;;;;;;16.95;11.52;;;5.60;99.90;;;;;;5027272;28;20469;-59
2020/12/07 11:24:39;;;;;;;14.52;8.77;;;5.60;99.90;;;;;;5017378;28;20036;-58
2020/12/07 11:27:05;;;;;;;27.58;16.75;;;5.50;99.90;;;;;;5038427;28;20017;-59
2020/12/07 11:29:32;;;;;;;10.05;6.88;;;5.50;99.90;;;;;;5020426;28;20051;-60
2020/12/07 11:31:57;;;;;;;11.70;7.80;;;5.50;99.90;;;;;;5028464;28;20021;-59
2020/12/07 11:34:23;;;;;;;10.05;7.18;;;5.40;99.90;;;;;;5025757;28;20080;-59
2020/12/07 11:36:50;;;;;;;24.83;13.85;;;5.40;99.90;;;;;;5016866;28;20056;-59
2020/12/07 11:41:57;;;;;;;13.90;9.13;;;5.50;99.90;;;;;;5022170;28;20080;-60
2020/12/07 11:44:23;;;;;;;13.95;9.10;;;5.50;99.90;;;;;;5031860;28;20029;-60
2020/12/07 11:49:22;;;;;;;16.85;9.65;;;5.40;99.90;;;;;;5022963;28;20020;-59
2020/12/07 11:51:48;;;;;;;21.40;10.75;;;5.40;99.90;;;;;;5027537;28;20037;-59
2020/12/07 11:54:14;;;;;;;14.07;9.18;;;5.30;99.90;;;;;;5031658;28;20431;-58
2020/12/07 11:56:40;;;;;;;14.23;8.98;;;5.20;99.90;;;;;;5022653;28;20073;-58
2020/12/07 11:59:07;;;;;;;18.77;9.77;;;5.20;99.90;;;;;;5021275;28;20020;-58
2020/12/07 12:01:37;;;;;;;25.63;14.90;;;5.20;99.90;;;;;;5032346;28;20030;-61
2020/12/07 12:04:04;;;;;;;13.20;8.65;;;5.20;99.90;;;;;;5037149;28;20021;-58
2020/12/07 12:06:35;;;;;;;18.52;9.52;;;5.10;99.90;;;;;;5027491;28;20034;-59
2020/12/07 12:09:04;;;;;;;12.95;7.75;;;5.10;99.90;;;;;;5033480;28;20103;-58
2020/12/07 12:11:34;;;;;;;14.68;8.23;;;5.20;99.90;;;;;;5035472;28;20018;-60
2020/12/07 12:14:01;;;;;;;21.45;9.80;;;5.20;99.90;;;;;;5015473;28;20026;-59
2020/12/07 12:16:27;;;;;;;11.13;7.38;;;5.10;99.90;;;;;;5032597;28;20513;-60
2020/12/07 12:18:57;;;;;;;13.05;7.50;;;5.10;99.90;;;;;;5016985;28;20022;-59
2020/12/07 12:21:24;;;;;;;15.95;8.30;;;5.20;99.90;;;;;;5028730;28;20054;-59
2020/12/07 12:23:50;;;;;;;12.32;7.53;;;5.20;99.90;;;;;;5033690;28;20108;-58
2020/12/07 12:26:16;;;;;;;23.42;11.57;;;5.30;99.90;;;;;;5038078;28;20791;-60
2020/12/07 12:28:42;;;;;;;24.58;12.18;;;5.30;99.90;;;;;;5016283;28;20491;-60
2020/12/07 12:31:08;;;;;;;31.15;12.70;;;5.40;99.90;;;;;;5032147;28;20040;-59
2020/12/07 12:33:33;;;;;;;26.30;12.15;;;5.40;99.90;;;;;;5009522;28;20026;-59
2020/12/07 12:35:59;;;;;;;11.88;7.53;;;5.50;99.90;;;;;;5026010;28;20033;-59
2020/12/07 12:38:25;;;;;;;14.88;8.85;;;5.50;99.90;;;;;;5005180;28;20041;-59
2020/12/07 12:40:51;;;;;;;12.82;7.85;;;5.60;99.90;;;;;;5033513;28;20030;-59
2020/12/07 12:43:17;;;;;;;24.65;12.00;;;5.60;99.90;;;;;;5026646;28;20040;-59
2020/12/07 12:45:42;;;;;;;29.65;14.07;;;5.70;99.90;;;;;;5024923;28;20045;-59
2020/12/07 12:48:08;;;;;;;28.77;13.98;;;5.70;99.90;;;;;;5016692;28;20021;-59
2020/12/07 12:50:34;;;;;;;25.30;12.10;;;5.70;99.90;;;;;;5028833;28;20049;-58
2020/12/07 12:53:00;;;;;;;45.15;20.35;;;5.70;99.90;;;;;;4998014;28;20659;-59
2020/12/07 12:55:25;;;;;;;23.50;14.00;;;5.70;99.90;;;;;;5045828;28;20036;-59
2020/12/07 12:57:51;;;;;;;42.15;18.33;;;5.70;99.90;;;;;;5030383;28;20021;-61
2020/12/07 13:00:17;;;;;;;50.08;20.40;;;5.80;99.90;;;;;;5038134;28;20590;-60
2020/12/07 13:02:42;;;;;;;22.92;12.38;;;5.90;99.90;;;;;;5031351;28;20507;-59
2020/12/07 13:05:08;;;;;;;13.98;8.85;;;5.90;99.90;;;;;;5030367;28;20479;-59
2020/12/07 13:07:33;;;;;;;19.80;10.35;;;6.00;99.90;;;;;;5038538;28;20033;-59
2020/12/07 13:09:59;;;;;;;29.30;14.85;;;5.90;99.90;;;;;;5029056;28;20026;-59